sensor_id;sensor_type;location;lat;lon;timestamp;temperature;humidity
8593;DHT22;4334;49.982;8.398;2023-11-19T00:13:49;8.50;99.90
8593;DHT22;4334;49.982;8.398;2023-11-19T00:31:01;8.60;99.90
8593;DHT22;4334;49.982;8.398;2023-11-19T00:48:17;8.70;99.90
8593;DHT22;4334;49.982;8.398;2023-11-19T01:05:29;8.70;99.90
8593;DHT22;4334;49.982;8.398;2023-11-19T01:22:41;8.70;99.90
8593;DHT22;4334;49.982;8.398;2023-11-19T01:30:05;10.80;99.90
8593;DHT22;4334;49.982;8.398;2023-11-19T01:35:04;8.70;99.90
8593;DHT22;4334;49.982;8.398;2023-11-19T01:40:02;10.60;99.90
8593;DHT22;4334;49.982;8.398;2023-11-19T01:42:36;8.80;99.90
8593;DHT22;4334;49.982;8.398;2023-11-19T01:45:05;8.80;99.90
8593;DHT22;4334;49.982;8.398;2023-11-19T01:50:01;8.80;99.90
8593;DHT22;4334;49.982;8.398;2023-11-19T01:52:32;8.80;99.90
8593;DHT22;4334;49.982;8.398;2023-11-19T01:55:05;8.80;99.90
8593;DHT22;4334;49.982;8.398;2023-11-19T02:04:56;8.80;99.90
8593;DHT22;4334;49.982;8.398;2023-11-19T02:07:24;8.90;99.90
8593;DHT22;4334;49.982;8.398;2023-11-19T02:12:19;8.90;99.90
8593;DHT22;4334;49.982;8.398;2023-11-19T02:17:26;8.90;99.90
8593;DHT22;4334;49.982;8.398;2023-11-19T02:19:53;8.90;99.90
8593;DHT22;4334;49.982;8.398;2023-11-19T02:22:20;8.90;99.90
8593;DHT22;4334;49.982;8.398;2023-11-19T02:24:49;8.90;99.90
8593;DHT22;4334;49.982;8.398;2023-11-19T02:27:22;9.00;99.90
8593;DHT22;4334;49.982;8.398;2023-11-19T02:29:54;9.00;99.90
8593;DHT22;4334;49.982;8.398;2023-11-19T02:44:39;9.10;99.90
8593;DHT22;4334;49.982;8.398;2023-11-19T02:47:07;9.10;99.90
8593;DHT22;4334;49.982;8.398;2023-11-19T02:52:03;9.00;99.90
8593;DHT22;4334;49.982;8.398;2023-11-19T03:04:33;9.10;99.90
8593;DHT22;4334;49.982;8.398;2023-11-19T03:07:02;9.10;99.90
8593;DHT22;4334;49.982;8.398;2023-11-19T03:16:51;9.20;99.90
8593;DHT22;4334;49.982;8.398;2023-11-19T03:21:47;9.30;99.90
8593;DHT22;4334;49.982;8.398;2023-11-19T03:29:08;9.30;99.90
8593;DHT22;4334;49.982;8.398;2023-11-19T03:31:35;9.30;99.90
8593;DHT22;4334;49.982;8.398;2023-11-19T03:36:34;9.40;99.90
8593;DHT22;4334;49.982;8.398;2023-11-19T03:39:02;9.40;99.90
8593;DHT22;4334;49.982;8.398;2023-11-19T03:46:23;9.50;99.90
8593;DHT22;4334;49.982;8.398;2023-11-19T03:51:17;9.50;99.90
8593;DHT22;4334;49.982;8.398;2023-11-19T04:01:11;9.60;99.90
8593;DHT22;4334;49.982;8.398;2023-11-19T04:06:06;9.60;99.90
8593;DHT22;4334;49.982;8.398;2023-11-19T04:11:01;9.60;99.90
8593;DHT22;4334;49.982;8.398;2023-11-19T04:13:29;9.70;99.90
8593;DHT22;4334;49.982;8.398;2023-11-19T04:25:50;9.70;99.90
8593;DHT22;4334;49.982;8.398;2023-11-19T04:28:17;9.60;99.90
8593;DHT22;4334;49.982;8.398;2023-11-19T04:30:45;9.70;99.90
8593;DHT22;4334;49.982;8.398;2023-11-19T04:33:12;9.70;99.90
8593;DHT22;4334;49.982;8.398;2023-11-19T04:43:00;9.80;99.90
8593;DHT22;4334;49.982;8.398;2023-11-19T04:47:55;9.80;99.90
8593;DHT22;4334;49.982;8.398;2023-11-19T04:52:51;9.80;99.90
8593;DHT22;4334;49.982;8.398;2023-11-19T05:00:13;13.70;99.90
8593;DHT22;4334;49.982;8.398;2023-11-19T05:02:40;9.80;99.90
8593;DHT22;4334;49.982;8.398;2023-11-19T05:05:09;9.80;99.90
8593;DHT22;4334;49.982;8.398;2023-11-19T05:10:05;9.90;99.90
8593;DHT22;4334;49.982;8.398;2023-11-19T05:14:59;9.90;99.90
8593;DHT22;4334;49.982;8.398;2023-11-19T05:17:26;9.80;99.90
8593;DHT22;4334;49.982;8.398;2023-11-19T05:19:53;9.90;99.90
8593;DHT22;4334;49.982;8.398;2023-11-19T05:22:21;9.90;99.90
8593;DHT22;4334;49.982;8.398;2023-11-19T05:24:48;9.90;99.90
8593;DHT22;4334;49.982;8.398;2023-11-19T05:29:42;10.00;99.90
8593;DHT22;4334;49.982;8.398;2023-11-19T05:34:36;10.00;99.90
8593;DHT22;4334;49.982;8.398;2023-11-19T05:37:04;10.00;99.90
8593;DHT22;4334;49.982;8.398;2023-11-19T05:39:32;10.10;99.90
8593;DHT22;4334;49.982;8.398;2023-11-19T05:41:59;10.10;99.90
8593;DHT22;4334;49.982;8.398;2023-11-19T05:44:26;10.10;99.90
8593;DHT22;4334;49.982;8.398;2023-11-19T05:49:20;10.10;99.90
8593;DHT22;4334;49.982;8.398;2023-11-19T05:51:47;10.10;99.90
8593;DHT22;4334;49.982;8.398;2023-11-19T05:54:14;10.10;99.90
8593;DHT22;4334;49.982;8.398;2023-11-19T05:56:47;10.20;99.90
8593;DHT22;4334;49.982;8.398;2023-11-19T05:59:14;10.20;99.90
8593;DHT22;4334;49.982;8.398;2023-11-19T06:06:37;10.20;99.90
8593;DHT22;4334;49.982;8.398;2023-11-19T06:09:05;10.20;99.90
8593;DHT22;4334;49.982;8.398;2023-11-19T06:14:02;10.20;99.90
8593;DHT22;4334;49.982;8.398;2023-11-19T06:16:31;10.20;99.90
8593;DHT22;4334;49.982;8.398;2023-11-19T06:18:57;10.30;99.90
8593;DHT22;4334;49.982;8.398;2023-11-19T06:21:24;10.30;99.90
8593;DHT22;4334;49.982;8.398;2023-11-19T06:26:19;10.30;99.90
8593;DHT22;4334;49.982;8.398;2023-11-19T06:28:47;10.30;99.90
8593;DHT22;4334;49.982;8.398;2023-11-19T06:31:16;10.30;99.90
8593;DHT22;4334;49.982;8.398;2023-11-19T06:33:42;10.30;99.90
8593;DHT22;4334;49.982;8.398;2023-11-19T06:38:36;10.40;99.90
8593;DHT22;4334;49.982;8.398;2023-11-19T06:41:07;10.30;99.90
8593;DHT22;4334;49.982;8.398;2023-11-19T06:43:36;10.40;99.90
8593;DHT22;4334;49.982;8.398;2023-11-19T06:46:03;10.40;99.90
8593;DHT22;4334;49.982;8.398;2023-11-19T06:48:33;10.40;99.90
8593;DHT22;4334;49.982;8.398;2023-11-19T06:51:00;10.40;99.90
8593;DHT22;4334;49.982;8.398;2023-11-19T06:53:27;10.40;99.90
8593;DHT22;4334;49.982;8.398;2023-11-19T07:00:49;10.30;99.90
8593;DHT22;4334;49.982;8.398;2023-11-19T07:05:45;10.40;99.90
8593;DHT22;4334;49.982;8.398;2023-11-19T07:08:12;10.40;99.90
8593;DHT22;4334;49.982;8.398;2023-11-19T07:10:39;10.50;99.90
8593;DHT22;4334;49.982;8.398;2023-11-19T07:13:06;10.60;99.90
8593;DHT22;4334;49.982;8.398;2023-11-19T07:15:33;10.70;99.90
8593;DHT22;4334;49.982;8.398;2023-11-19T07:17:59;10.60;99.90
8593;DHT22;4334;49.982;8.398;2023-11-19T07:20:26;10.70;99.90
8593;DHT22;4334;49.982;8.398;2023-11-19T07:22:54;10.70;99.90
8593;DHT22;4334;49.982;8.398;2023-11-19T07:25:22;10.70;99.90
8593;DHT22;4334;49.982;8.398;2023-11-19T07:27:49;11.40;99.90
8593;DHT22;4334;49.982;8.398;2023-11-19T07:30:17;10.70;99.90
8593;DHT22;4334;49.982;8.398;2023-11-19T07:32:44;10.90;99.90
8593;DHT22;4334;49.982;8.398;2023-11-19T07:37:38;10.70;99.90
8593;DHT22;4334;49.982;8.398;2023-11-19T07:40:08;10.70;99.90
8593;DHT22;4334;49.982;8.398;2023-11-19T07:42:37;10.70;99.90
8593;DHT22;4334;49.982;8.398;2023-11-19T07:45:05;12.30;99.90
8593;DHT22;4334;49.982;8.398;2023-11-19T07:47:32;10.80;99.90
8593;DHT22;4334;49.982;8.398;2023-11-19T07:50:00;10.90;99.90
8593;DHT22;4334;49.982;8.398;2023-11-19T07:52:26;11.20;99.90
8593;DHT22;4334;49.982;8.398;2023-11-19T07:54:54;11.20;99.90
8593;DHT22;4334;49.982;8.398;2023-11-19T07:57:22;11.70;99.90
8593;DHT22;4334;49.982;8.398;2023-11-19T07:59:50;12.10;99.90
8593;DHT22;4334;49.982;8.398;2023-11-19T08:02:17;12.30;99.90
8593;DHT22;4334;49.982;8.398;2023-11-19T08:04:44;12.40;99.90
8593;DHT22;4334;49.982;8.398;2023-11-19T08:07:11;12.60;99.90
8593;DHT22;4334;49.982;8.398;2023-11-19T08:09:38;12.70;99.90
8593;DHT22;4334;49.982;8.398;2023-11-19T08:12:06;12.60;99.90
8593;DHT22;4334;49.982;8.398;2023-11-19T08:14:35;12.80;99.90
8593;DHT22;4334;49.982;8.398;2023-11-19T08:17:03;13.00;99.90
8593;DHT22;4334;49.982;8.398;2023-11-19T08:19:30;13.40;99.90
8593;DHT22;4334;49.982;8.398;2023-11-19T08:21:56;13.50;99.90
8593;DHT22;4334;49.982;8.398;2023-11-19T08:24:23;13.80;99.90
8593;DHT22;4334;49.982;8.398;2023-11-19T08:26:50;14.10;99.90
8593;DHT22;4334;49.982;8.398;2023-11-19T08:29:17;14.20;99.90
8593;DHT22;4334;49.982;8.398;2023-11-19T08:31:45;14.10;99.90
8593;DHT22;4334;49.982;8.398;2023-11-19T08:34:12;14.60;99.90
8593;DHT22;4334;49.982;8.398;2023-11-19T08:36:39;14.60;99.90
8593;DHT22;4334;49.982;8.398;2023-11-19T08:39:06;15.00;99.90
8593;DHT22;4334;49.982;8.398;2023-11-19T08:41:34;15.10;99.90
8593;DHT22;4334;49.982;8.398;2023-11-19T08:44:01;14.70;99.90
8593;DHT22;4334;49.982;8.398;2023-11-19T08:46:27;14.10;99.90
8593;DHT22;4334;49.982;8.398;2023-11-19T08:48:56;13.70;99.90
8593;DHT22;4334;49.982;8.398;2023-11-19T08:53:50;12.90;99.90
8593;DHT22;4334;49.982;8.398;2023-11-19T08:56:17;12.90;99.90
8593;DHT22;4334;49.982;8.398;2023-11-19T08:58:44;12.90;99.90
8593;DHT22;4334;49.982;8.398;2023-11-19T09:01:11;12.90;99.90
8593;DHT22;4334;49.982;8.398;2023-11-19T09:06:07;12.90;99.90
8593;DHT22;4334;49.982;8.398;2023-11-19T09:08:34;12.80;99.90
8593;DHT22;4334;49.982;8.398;2023-11-19T09:15:55;13.40;99.90
8593;DHT22;4334;49.982;8.398;2023-11-19T09:18:28;13.50;99.90
8593;DHT22;4334;49.982;8.398;2023-11-19T09:20:55;14.40;99.90
8593;DHT22;4334;49.982;8.398;2023-11-19T09:23:24;15.00;99.90
8593;DHT22;4334;49.982;8.398;2023-11-19T09:25:51;15.70;99.90
8593;DHT22;4334;49.982;8.398;2023-11-19T09:28:18;16.20;99.90
8593;DHT22;4334;49.982;8.398;2023-11-19T09:30:45;16.70;99.90
8593;DHT22;4334;49.982;8.398;2023-11-19T09:33:12;17.10;99.90
8593;DHT22;4334;49.982;8.398;2023-11-19T09:35:39;17.20;99.90
8593;DHT22;4334;49.982;8.398;2023-11-19T09:38:06;17.30;99.90
8593;DHT22;4334;49.982;8.398;2023-11-19T09:40:34;17.00;99.90
8593;DHT22;4334;49.982;8.398;2023-11-19T09:43:01;16.90;99.90
8593;DHT22;4334;49.982;8.398;2023-11-19T09:45:28;16.90;99.90
8593;DHT22;4334;49.982;8.398;2023-11-19T09:47:56;17.20;99.90
8593;DHT22;4334;49.982;8.398;2023-11-19T09:50:23;20.10;99.90
8593;DHT22;4334;49.982;8.398;2023-11-19T09:52:50;17.40;99.90
8593;DHT22;4334;49.982;8.398;2023-11-19T09:55:18;17.50;99.90
8593;DHT22;4334;49.982;8.398;2023-11-19T09:57:48;17.30;99.90
8593;DHT22;4334;49.982;8.398;2023-11-19T10:00:18;20.50;99.90
8593;DHT22;4334;49.982;8.398;2023-11-19T10:02:48;16.80;99.90
8593;DHT22;4334;49.982;8.398;2023-11-19T10:05:16;16.80;99.90
8593;DHT22;4334;49.982;8.398;2023-11-19T10:10:11;16.90;99.90
8593;DHT22;4334;49.982;8.398;2023-11-19T10:12:43;17.10;99.90
8593;DHT22;4334;49.982;8.398;2023-11-19T10:15:19;17.00;99.90
8593;DHT22;4334;49.982;8.398;2023-11-19T10:17:46;17.00;99.90
8593;DHT22;4334;49.982;8.398;2023-11-19T10:20:13;17.00;99.90
8593;DHT22;4334;49.982;8.398;2023-11-19T10:22:40;16.90;99.90
8593;DHT22;4334;49.982;8.398;2023-11-19T10:25:21;17.10;99.90
8593;DHT22;4334;49.982;8.398;2023-11-19T10:27:49;16.80;99.90
8593;DHT22;4334;49.982;8.398;2023-11-19T10:30:20;16.80;99.90
8593;DHT22;4334;49.982;8.398;2023-11-19T10:33:02;17.30;99.90
8593;DHT22;4334;49.982;8.398;2023-11-19T10:35:29;17.80;99.90
8593;DHT22;4334;49.982;8.398;2023-11-19T10:37:59;17.90;99.90
8593;DHT22;4334;49.982;8.398;2023-11-19T10:40:37;17.30;99.90
8593;DHT22;4334;49.982;8.398;2023-11-19T10:43:05;17.00;99.90
8593;DHT22;4334;49.982;8.398;2023-11-19T10:45:34;17.10;99.90
8593;DHT22;4334;49.982;8.398;2023-11-19T10:48:02;16.30;99.90
8593;DHT22;4334;49.982;8.398;2023-11-19T10:50:33;16.10;99.90
8593;DHT22;4334;49.982;8.398;2023-11-19T10:53:00;16.00;99.90
8593;DHT22;4334;49.982;8.398;2023-11-19T10:55:28;16.20;99.90
8593;DHT22;4334;49.982;8.398;2023-11-19T10:57:59;16.30;99.90
8593;DHT22;4334;49.982;8.398;2023-11-19T11:00:27;15.70;99.90
8593;DHT22;4334;49.982;8.398;2023-11-19T11:03:00;15.30;99.90
8593;DHT22;4334;49.982;8.398;2023-11-19T11:07:55;15.60;99.90
8593;DHT22;4334;49.982;8.398;2023-11-19T11:10:25;15.60;99.90
8593;DHT22;4334;49.982;8.398;2023-11-19T11:15:25;16.30;99.90
8593;DHT22;4334;49.982;8.398;2023-11-19T11:17:57;16.50;99.90
8593;DHT22;4334;49.982;8.398;2023-11-19T11:20:26;17.10;99.90
8593;DHT22;4334;49.982;8.398;2023-11-19T11:23:16;16.90;99.90
8593;DHT22;4334;49.982;8.398;2023-11-19T11:25:56;17.00;99.90
8593;DHT22;4334;49.982;8.398;2023-11-19T11:28:31;17.10;99.90
8593;DHT22;4334;49.982;8.398;2023-11-19T11:31:09;17.80;99.90
8593;DHT22;4334;49.982;8.398;2023-11-19T11:33:57;18.50;99.90
8593;DHT22;4334;49.982;8.398;2023-11-19T11:36:26;21.00;99.90
8593;DHT22;4334;49.982;8.398;2023-11-19T11:38:53;19.70;99.90
8593;DHT22;4334;49.982;8.398;2023-11-19T11:41:26;17.40;99.90
8593;DHT22;4334;49.982;8.398;2023-11-19T11:46:54;16.00;99.90
8593;DHT22;4334;49.982;8.398;2023-11-19T11:49:30;16.00;99.90
8593;DHT22;4334;49.982;8.398;2023-11-19T11:52:01;17.60;99.90
8593;DHT22;4334;49.982;8.398;2023-11-19T11:54:29;17.90;99.90
8593;DHT22;4334;49.982;8.398;2023-11-19T11:57:03;17.90;99.90
8593;DHT22;4334;49.982;8.398;2023-11-19T11:59:37;18.60;99.90
8593;DHT22;4334;49.982;8.398;2023-11-19T12:02:04;18.70;99.90
8593;DHT22;4334;49.982;8.398;2023-11-19T12:04:35;19.50;99.90
8593;DHT22;4334;49.982;8.398;2023-11-19T12:07:04;20.10;99.90
8593;DHT22;4334;49.982;8.398;2023-11-19T12:09:31;20.30;99.90
8593;DHT22;4334;49.982;8.398;2023-11-19T12:15:06;22.30;99.90
8593;DHT22;4334;49.982;8.398;2023-11-19T12:17:41;20.00;99.90
8593;DHT22;4334;49.982;8.398;2023-11-19T12:20:12;19.50;99.90
8593;DHT22;4334;49.982;8.398;2023-11-19T12:22:40;18.90;99.90
8593;DHT22;4334;49.982;8.398;2023-11-19T12:25:08;18.50;99.90
8593;DHT22;4334;49.982;8.398;2023-11-19T12:27:35;18.40;99.90
8593;DHT22;4334;49.982;8.398;2023-11-19T12:30:04;19.20;99.90
8593;DHT22;4334;49.982;8.398;2023-11-19T12:32:38;18.80;99.90
8593;DHT22;4334;49.982;8.398;2023-11-19T12:35:06;18.50;99.90
8593;DHT22;4334;49.982;8.398;2023-11-19T12:37:40;18.00;99.90
8593;DHT22;4334;49.982;8.398;2023-11-19T12:40:15;18.50;99.90
8593;DHT22;4334;49.982;8.398;2023-11-19T12:42:43;18.10;99.90
8593;DHT22;4334;49.982;8.398;2023-11-19T12:45:10;18.10;99.90
8593;DHT22;4334;49.982;8.398;2023-11-19T12:47:38;18.00;99.90
8593;DHT22;4334;49.982;8.398;2023-11-19T12:50:07;18.00;99.90
8593;DHT22;4334;49.982;8.398;2023-11-19T12:55:04;18.00;99.90
8593;DHT22;4334;49.982;8.398;2023-11-19T12:57:39;18.10;99.90
8593;DHT22;4334;49.982;8.398;2023-11-19T13:00:07;18.50;99.90
8593;DHT22;4334;49.982;8.398;2023-11-19T13:02:46;18.60;99.90
8593;DHT22;4334;49.982;8.398;2023-11-19T13:05:27;18.40;99.90
8593;DHT22;4334;49.982;8.398;2023-11-19T13:08:04;20.50;99.90
8593;DHT22;4334;49.982;8.398;2023-11-19T13:10:49;17.90;99.90
8593;DHT22;4334;49.982;8.398;2023-11-19T13:13:16;17.60;99.90
8593;DHT22;4334;49.982;8.398;2023-11-19T13:15:44;17.10;99.90
8593;DHT22;4334;49.982;8.398;2023-11-19T13:18:12;16.80;99.90
8593;DHT22;4334;49.982;8.398;2023-11-19T13:20:39;16.60;99.90
8593;DHT22;4334;49.982;8.398;2023-11-19T13:25:35;16.00;99.90
8593;DHT22;4334;49.982;8.398;2023-11-19T13:28:01;15.80;99.90
8593;DHT22;4334;49.982;8.398;2023-11-19T13:30:28;15.70;99.90
8593;DHT22;4334;49.982;8.398;2023-11-19T13:32:55;15.70;99.90
8593;DHT22;4334;49.982;8.398;2023-11-19T13:42:46;15.30;99.90
8593;DHT22;4334;49.982;8.398;2023-11-19T13:45:14;15.20;99.90
8593;DHT22;4334;49.982;8.398;2023-11-19T13:47:42;15.20;99.90
8593;DHT22;4334;49.982;8.398;2023-11-19T13:50:10;15.20;99.90
8593;DHT22;4334;49.982;8.398;2023-11-19T13:55:07;15.10;99.90
8593;DHT22;4334;49.982;8.398;2023-11-19T14:00:04;15.00;99.90
8593;DHT22;4334;49.982;8.398;2023-11-19T14:17:17;15.10;99.90
8593;DHT22;4334;49.982;8.398;2023-11-19T14:34:31;14.80;99.90
8593;DHT22;4334;49.982;8.398;2023-11-19T14:51:50;14.60;99.90
8593;DHT22;4334;49.982;8.398;2023-11-19T14:54:18;14.60;99.90
8593;DHT22;4334;49.982;8.398;2023-11-19T15:09:03;13.90;99.90
8593;DHT22;4334;49.982;8.398;2023-11-19T15:41:05;13.30;99.90
8593;DHT22;4334;49.982;8.398;2023-11-19T15:43:34;13.30;99.90
8593;DHT22;4334;49.982;8.398;2023-11-19T15:46:04;13.10;99.90
8593;DHT22;4334;49.982;8.398;2023-11-19T15:48:31;12.90;99.90
8593;DHT22;4334;49.982;8.398;2023-11-19T15:50:58;12.80;99.90
8593;DHT22;4334;49.982;8.398;2023-11-19T15:53:25;12.60;99.90
8593;DHT22;4334;49.982;8.398;2023-11-19T15:55:53;12.50;99.90
8593;DHT22;4334;49.982;8.398;2023-11-19T15:58:20;12.50;99.90
8593;DHT22;4334;49.982;8.398;2023-11-19T16:00:49;12.40;99.90
8593;DHT22;4334;49.982;8.398;2023-11-19T16:03:16;12.30;99.90
8593;DHT22;4334;49.982;8.398;2023-11-19T16:05:43;12.10;99.90
8593;DHT22;4334;49.982;8.398;2023-11-19T16:08:10;12.00;99.90
8593;DHT22;4334;49.982;8.398;2023-11-19T16:10:37;12.00;99.90
8593;DHT22;4334;49.982;8.398;2023-11-19T16:13:09;12.00;99.90
8593;DHT22;4334;49.982;8.398;2023-11-19T16:15:36;12.10;99.90
8593;DHT22;4334;49.982;8.398;2023-11-19T16:18:04;12.10;99.90
8593;DHT22;4334;49.982;8.398;2023-11-19T16:20:31;12.20;99.90
8593;DHT22;4334;49.982;8.398;2023-11-19T16:23:00;12.20;99.90
8593;DHT22;4334;49.982;8.398;2023-11-19T16:25:27;12.10;99.90
8593;DHT22;4334;49.982;8.398;2023-11-19T16:30:22;12.00;99.90
8593;DHT22;4334;49.982;8.398;2023-11-19T16:32:52;12.00;99.90
8593;DHT22;4334;49.982;8.398;2023-11-19T16:35:21;12.00;99.90
8593;DHT22;4334;49.982;8.398;2023-11-19T16:37:48;15.50;99.90
8593;DHT22;4334;49.982;8.398;2023-11-19T16:40:15;14.90;99.90
8593;DHT22;4334;49.982;8.398;2023-11-19T16:42:43;12.00;99.90
8593;DHT22;4334;49.982;8.398;2023-11-19T16:45:12;12.00;99.90
8593;DHT22;4334;49.982;8.398;2023-11-19T16:47:39;11.90;99.90
8593;DHT22;4334;49.982;8.398;2023-11-19T16:50:06;12.10;99.90
8593;DHT22;4334;49.982;8.398;2023-11-19T16:52:34;12.20;99.90
8593;DHT22;4334;49.982;8.398;2023-11-19T16:55:01;12.40;99.90
8593;DHT22;4334;49.982;8.398;2023-11-19T16:59:59;12.40;99.90
8593;DHT22;4334;49.982;8.398;2023-11-19T17:02:26;12.40;99.90
8593;DHT22;4334;49.982;8.398;2023-11-19T17:09:51;12.50;99.90
8593;DHT22;4334;49.982;8.398;2023-11-19T17:19:39;12.40;99.90
8593;DHT22;4334;49.982;8.398;2023-11-19T17:27:04;12.10;99.90
8593;DHT22;4334;49.982;8.398;2023-11-19T17:29:31;14.40;99.90
8593;DHT22;4334;49.982;8.398;2023-11-19T17:31:58;12.00;99.90
8593;DHT22;4334;49.982;8.398;2023-11-19T17:34:25;11.90;99.90
8593;DHT22;4334;49.982;8.398;2023-11-19T17:44:14;12.00;99.90
8593;DHT22;4334;49.982;8.398;2023-11-19T18:01:27;11.90;99.90
8593;DHT22;4334;49.982;8.398;2023-11-19T18:13:45;11.70;99.90
8593;DHT22;4334;49.982;8.398;2023-11-19T18:18:42;11.60;99.90
8593;DHT22;4334;49.982;8.398;2023-11-19T18:35:54;11.20;99.90
8593;DHT22;4334;49.982;8.398;2023-11-19T18:45:43;10.80;99.90
8593;DHT22;4334;49.982;8.398;2023-11-19T18:48:10;10.70;99.90
8593;DHT22;4334;49.982;8.398;2023-11-19T18:50:38;10.70;99.90
8593;DHT22;4334;49.982;8.398;2023-11-19T18:53:06;10.50;99.90
8593;DHT22;4334;49.982;8.398;2023-11-19T18:55:33;12.10;99.90
8593;DHT22;4334;49.982;8.398;2023-11-19T18:58:00;14.90;99.90
8593;DHT22;4334;49.982;8.398;2023-11-19T19:00:28;10.20;99.90
8593;DHT22;4334;49.982;8.398;2023-11-19T19:02:55;10.20;99.90
8593;DHT22;4334;49.982;8.398;2023-11-19T19:05:22;10.20;99.90
8593;DHT22;4334;49.982;8.398;2023-11-19T19:07:49;10.40;99.90
8593;DHT22;4334;49.982;8.398;2023-11-19T19:10:19;14.90;99.90
8593;DHT22;4334;49.982;8.398;2023-11-19T19:12:46;10.70;99.90
8593;DHT22;4334;49.982;8.398;2023-11-19T19:15:13;10.70;99.90
8593;DHT22;4334;49.982;8.398;2023-11-19T19:20:08;11.00;99.90
8593;DHT22;4334;49.982;8.398;2023-11-19T19:22:35;11.00;99.90
8593;DHT22;4334;49.982;8.398;2023-11-19T19:25:05;11.00;99.90
8593;DHT22;4334;49.982;8.398;2023-11-19T19:27:33;11.00;99.90
8593;DHT22;4334;49.982;8.398;2023-11-19T19:30:00;11.10;99.90
8593;DHT22;4334;49.982;8.398;2023-11-19T19:32:27;11.10;99.90
8593;DHT22;4334;49.982;8.398;2023-11-19T19:34:54;11.10;99.90
8593;DHT22;4334;49.982;8.398;2023-11-19T19:37:21;11.10;99.90
8593;DHT22;4334;49.982;8.398;2023-11-19T19:39:48;11.00;99.90
8593;DHT22;4334;49.982;8.398;2023-11-19T19:42:15;14.80;99.90
8593;DHT22;4334;49.982;8.398;2023-11-19T19:44:43;11.20;99.90
8593;DHT22;4334;49.982;8.398;2023-11-19T19:47:10;11.20;99.90
8593;DHT22;4334;49.982;8.398;2023-11-19T19:49:37;11.20;99.90
8593;DHT22;4334;49.982;8.398;2023-11-19T19:52:04;11.30;99.90
8593;DHT22;4334;49.982;8.398;2023-11-19T19:54:31;11.20;99.90
8593;DHT22;4334;49.982;8.398;2023-11-19T19:57:00;11.20;99.90
8593;DHT22;4334;49.982;8.398;2023-11-19T19:59:28;11.30;99.90
8593;DHT22;4334;49.982;8.398;2023-11-19T20:01:56;11.40;99.90
8593;DHT22;4334;49.982;8.398;2023-11-19T20:04:23;11.50;99.90
8593;DHT22;4334;49.982;8.398;2023-11-19T20:06:51;11.50;99.90
8593;DHT22;4334;49.982;8.398;2023-11-19T20:09:19;11.50;99.90
8593;DHT22;4334;49.982;8.398;2023-11-19T20:11:47;11.60;99.90
8593;DHT22;4334;49.982;8.398;2023-11-19T20:14:16;11.80;99.90
8593;DHT22;4334;49.982;8.398;2023-11-19T20:16:48;11.80;99.90
8593;DHT22;4334;49.982;8.398;2023-11-19T20:19:16;11.90;99.90
8593;DHT22;4334;49.982;8.398;2023-11-19T20:24:10;12.00;99.90
8593;DHT22;4334;49.982;8.398;2023-11-19T20:26:37;12.10;99.90
8593;DHT22;4334;49.982;8.398;2023-11-19T20:31:33;12.20;99.90
8593;DHT22;4334;49.982;8.398;2023-11-19T20:36:29;12.10;99.90
8593;DHT22;4334;49.982;8.398;2023-11-19T20:38:56;12.20;99.90
8593;DHT22;4334;49.982;8.398;2023-11-19T20:41:23;12.20;99.90
8593;DHT22;4334;49.982;8.398;2023-11-19T20:43:50;12.30;99.90
8593;DHT22;4334;49.982;8.398;2023-11-19T20:46:17;12.20;99.90
8593;DHT22;4334;49.982;8.398;2023-11-19T20:48:44;12.30;99.90
8593;DHT22;4334;49.982;8.398;2023-11-19T20:51:11;12.30;99.90
8593;DHT22;4334;49.982;8.398;2023-11-19T20:53:40;12.20;99.90
8593;DHT22;4334;49.982;8.398;2023-11-19T20:56:08;12.20;99.90
8593;DHT22;4334;49.982;8.398;2023-11-19T20:58:35;12.20;99.90
8593;DHT22;4334;49.982;8.398;2023-11-19T21:01:02;12.20;99.90
8593;DHT22;4334;49.982;8.398;2023-11-19T21:03:29;12.20;99.90
8593;DHT22;4334;49.982;8.398;2023-11-19T21:05:56;15.00;99.90
8593;DHT22;4334;49.982;8.398;2023-11-19T21:10:53;12.30;99.90
8593;DHT22;4334;49.982;8.398;2023-11-19T21:13:20;12.30;99.90
8593;DHT22;4334;49.982;8.398;2023-11-19T21:15:47;12.30;99.90
8593;DHT22;4334;49.982;8.398;2023-11-19T21:18:15;12.30;99.90
8593;DHT22;4334;49.982;8.398;2023-11-19T21:20:42;12.30;99.90
8593;DHT22;4334;49.982;8.398;2023-11-19T21:28:06;12.30;99.90
8593;DHT22;4334;49.982;8.398;2023-11-19T21:33:00;12.40;99.90
8593;DHT22;4334;49.982;8.398;2023-11-19T21:40:22;12.40;99.90
8593;DHT22;4334;49.982;8.398;2023-11-19T21:45:19;12.40;99.90
8593;DHT22;4334;49.982;8.398;2023-11-19T21:47:46;12.40;99.90
8593;DHT22;4334;49.982;8.398;2023-11-19T21:50:12;12.50;99.90
8593;DHT22;4334;49.982;8.398;2023-11-19T21:52:40;12.50;99.90
8593;DHT22;4334;49.982;8.398;2023-11-19T21:55:08;12.60;99.90
8593;DHT22;4334;49.982;8.398;2023-11-19T21:57:35;12.60;99.90
8593;DHT22;4334;49.982;8.398;2023-11-19T22:00:05;12.50;99.90
8593;DHT22;4334;49.982;8.398;2023-11-19T22:02:34;12.50;99.90
8593;DHT22;4334;49.982;8.398;2023-11-19T22:09:57;12.50;99.90
8593;DHT22;4334;49.982;8.398;2023-11-19T22:19:48;12.50;99.90
8593;DHT22;4334;49.982;8.398;2023-11-19T22:22:15;12.50;99.90
8593;DHT22;4334;49.982;8.398;2023-11-19T22:27:09;12.50;99.90
8593;DHT22;4334;49.982;8.398;2023-11-19T22:29:36;12.60;99.90
8593;DHT22;4334;49.982;8.398;2023-11-19T22:32:04;12.60;99.90
8593;DHT22;4334;49.982;8.398;2023-11-19T22:34:31;12.50;99.90
8593;DHT22;4334;49.982;8.398;2023-11-19T22:36:59;12.60;99.90
8593;DHT22;4334;49.982;8.398;2023-11-19T22:39:26;12.60;99.90
8593;DHT22;4334;49.982;8.398;2023-11-19T22:46:49;12.60;99.90
8593;DHT22;4334;49.982;8.398;2023-11-19T22:51:43;12.60;99.90
8593;DHT22;4334;49.982;8.398;2023-11-19T22:54:11;12.60;99.90
8593;DHT22;4334;49.982;8.398;2023-11-19T22:56:38;12.60;99.90
8593;DHT22;4334;49.982;8.398;2023-11-19T23:06:26;12.60;99.90
8593;DHT22;4334;49.982;8.398;2023-11-19T23:08:53;12.60;99.90
8593;DHT22;4334;49.982;8.398;2023-11-19T23:11:21;13.00;99.90
8593;DHT22;4334;49.982;8.398;2023-11-19T23:13:48;12.50;99.90
8593;DHT22;4334;49.982;8.398;2023-11-19T23:16:16;12.60;99.90
8593;DHT22;4334;49.982;8.398;2023-11-19T23:18:43;12.60;99.90
8593;DHT22;4334;49.982;8.398;2023-11-19T23:26:07;12.70;99.90
8593;DHT22;4334;49.982;8.398;2023-11-19T23:28:35;12.70;99.90
8593;DHT22;4334;49.982;8.398;2023-11-19T23:33:29;12.60;99.90
8593;DHT22;4334;49.982;8.398;2023-11-19T23:35:57;12.60;99.90
8593;DHT22;4334;49.982;8.398;2023-11-19T23:38:24;12.60;99.90
8593;DHT22;4334;49.982;8.398;2023-11-19T23:43:19;12.60;99.90
8593;DHT22;4334;49.982;8.398;2023-11-19T23:45:47;12.50;99.90
8593;DHT22;4334;49.982;8.398;2023-11-19T23:48:14;12.60;99.90
8593;DHT22;4334;49.982;8.398;2023-11-19T23:50:41;12.50;99.90
8593;DHT22;4334;49.982;8.398;2023-11-19T23:55:38;12.50;99.90
8593;DHT22;4334;49.982;8.398;2023-11-19T23:58:05;12.50;99.90
